Time;durP1;ratioP1;P1;durP2;ratioP2;P2;SDS_P1;SDS_P2;PMS_P1;PMS_P2;Temp;Humidity;BMP_temperature;BMP_pressure;BME280_temperature;BME280_humidity;BME280_pressure;Samples;Min_cycle;Max_cycle;Signal;HPM_P1;HPM_P2
2023/01/24 00:00:30;;;;;;;14.80;11.27;;;8.20;59.40;;;;;;5031778;28;20288;-59
2023/01/24 00:02:55;;;;;;;13.17;9.47;;;8.20;59.70;;;;;;5026261;28;20201;-59
2023/01/24 00:05:21;;;;;;;12.07;9.60;;;8.20;59.60;;;;;;5028446;28;20193;-58
2023/01/24 00:07:46;;;;;;;12.07;9.93;;;8.20;59.50;;;;;;5026328;28;20877;-60
2023/01/24 00:10:12;;;;;;;12.17;9.23;;;8.00;59.50;;;;;;5024119;28;20653;-58
2023/01/24 00:12:38;;;;;;;12.07;9.30;;;8.20;59.70;;;;;;5026756;28;20833;-58
2023/01/24 00:15:05;;;;;;;12.43;9.33;;;8.30;59.30;;;;;;5025993;28;20882;-58
2023/01/24 00:17:30;;;;;;;13.33;9.77;;;8.20;59.20;;;;;;5026292;28;20200;-59
2023/01/24 00:19:56;;;;;;;12.63;9.90;;;8.30;59.10;;;;;;5026316;28;20792;-59
2023/01/24 00:22:21;;;;;;;11.03;9.80;;;8.30;59.10;;;;;;5027758;28;20197;-59
2023/01/24 00:24:48;;;;;;;11.90;9.70;;;8.50;58.90;;;;;;5024210;28;20194;-58
2023/01/24 00:27:14;;;;;;;13.30;10.20;;;8.40;58.80;;;;;;5021840;28;20193;-59
2023/01/24 00:29:40;;;;;;;13.13;9.90;;;8.10;59.70;;;;;;5025393;28;20464;-58
2023/01/24 00:32:06;;;;;;;13.37;10.20;;;8.10;59.60;;;;;;5018312;28;20512;-58
2023/01/24 00:34:31;;;;;;;12.33;9.73;;;8.00;59.40;;;;;;5031323;28;20335;-59
2023/01/24 00:36:57;;;;;;;13.93;10.43;;;7.80;60.10;;;;;;5030725;28;20193;-59
2023/01/24 00:39:22;;;;;;;14.00;10.80;;;7.70;60.70;;;;;;5031499;28;20258;-58
2023/01/24 00:41:48;;;;;;;14.67;11.50;;;7.70;60.50;;;;;;5024954;28;20204;-59
2023/01/24 00:44:13;;;;;;;13.60;10.07;;;7.80;60.70;;;;;;5029604;28;20202;-59
2023/01/24 00:46:39;;;;;;;14.77;10.40;;;7.90;60.30;;;;;;5034534;28;20193;-58
2023/01/24 00:49:05;;;;;;;14.67;11.67;;;8.00;60.00;;;;;;5031399;28;20196;-59
2023/01/24 00:51:30;;;;;;;14.40;10.80;;;8.10;59.80;;;;;;5027589;28;20532;-58
2023/01/24 00:53:56;;;;;;;14.10;10.37;;;8.00;59.80;;;;;;5022636;28;20232;-59
2023/01/24 00:56:21;;;;;;;12.83;9.77;;;7.90;60.00;;;;;;5025178;28;20197;-59
2023/01/24 00:58:47;;;;;;;14.07;10.40;;;7.90;60.00;;;;;;5017447;28;20193;-58
2023/01/24 01:01:12;;;;;;;14.57;10.50;;;7.80;60.50;;;;;;5024726;28;20610;-59
2023/01/24 01:03:38;;;;;;;15.07;11.50;;;8.00;60.20;;;;;;5027164;28;20213;-58
2023/01/24 01:06:11;;;;;;;15.37;10.63;;;8.00;60.00;;;;;;5025247;28;20227;-59
2023/01/24 01:08:37;;;;;;;13.00;10.40;;;7.90;60.50;;;;;;5026413;28;20215;-59
2023/01/24 01:11:03;;;;;;;16.67;11.63;;;8.20;60.00;;;;;;5020307;28;20440;-58
2023/01/24 01:13:29;;;;;;;13.00;10.37;;;8.00;59.70;;;;;;5023248;28;20214;-59
2023/01/24 01:16:16;;;;;;;16.60;13.67;;;8.00;60.10;;;;;;5027124;28;20446;-59
2023/01/24 01:18:41;;;;;;;13.37;10.03;;;8.10;59.80;;;;;;5023860;28;20978;-58
2023/01/24 01:21:09;;;;;;;13.03;11.00;;;8.10;59.70;;;;;;5021368;28;20444;-59
2023/01/24 01:23:34;;;;;;;15.83;10.90;;;8.10;59.70;;;;;;5024775;28;20206;-59
2023/01/24 01:26:06;;;;;;;12.87;10.47;;;8.00;59.80;;;;;;5024546;28;20444;-59
2023/01/24 01:28:32;;;;;;;14.33;11.27;;;8.00;59.90;;;;;;5025682;28;20197;-58
2023/01/24 01:30:57;;;;;;;13.33;10.70;;;7.90;60.20;;;;;;5026624;28;20475;-58
2023/01/24 01:33:24;;;;;;;13.97;10.97;;;7.90;60.60;;;;;;5027853;28;20236;-58
2023/01/24 01:35:51;;;;;;;15.30;11.17;;;7.80;60.70;;;;;;5022365;28;20190;-59
2023/01/24 01:38:17;;;;;;;14.97;11.10;;;7.90;60.70;;;;;;5022362;28;20521;-59
2023/01/24 01:40:44;;;;;;;14.53;10.87;;;7.90;60.50;;;;;;5020254;28;20518;-59
2023/01/24 01:43:15;;;;;;;14.53;10.63;;;8.10;60.40;;;;;;5022301;28;20447;-59
2023/01/24 01:45:53;;;;;;;14.97;10.80;;;8.30;59.80;;;;;;5028622;28;20444;-59
2023/01/24 01:48:21;;;;;;;14.23;10.00;;;8.50;59.30;;;;;;5027412;28;20813;-58
2023/01/24 01:50:56;;;;;;;14.93;10.63;;;8.50;59.00;;;;;;5028207;28;20982;-59
2023/01/24 01:53:26;;;;;;;16.83;11.33;;;8.50;58.80;;;;;;5028008;28;20980;-58
2023/01/24 01:56:00;;;;;;;15.10;10.67;;;8.20;59.20;;;;;;5028909;28;20439;-60
2023/01/24 01:58:26;;;;;;;16.50;11.40;;;8.10;59.80;;;;;;5016361;28;20448;-59
2023/01/24 02:00:51;;;;;;;14.60;10.80;;;8.30;59.60;;;;;;5029426;28;20932;-59
2023/01/24 02:03:39;;;;;;;12.03;10.00;;;8.50;59.20;;;;;;5026775;28;20489;-59
2023/01/24 02:06:10;;;;;;;15.40;11.37;;;8.50;58.80;;;;;;5025575;28;20198;-59
2023/01/24 02:08:36;;;;;;;14.53;10.97;;;8.50;59.00;;;;;;5027104;28;20527;-59
2023/01/24 02:13:47;;;;;;;14.03;9.90;;;8.60;58.90;;;;;;5026913;28;20283;-59
2023/01/24 02:16:14;;;;;;;13.83;10.63;;;8.60;59.10;;;;;;5023980;28;20439;-59
2023/01/24 02:18:42;;;;;;;11.57;8.93;;;8.50;59.10;;;;;;5026497;28;20620;-59
2023/01/24 02:21:15;;;;;;;12.60;9.90;;;8.50;59.30;;;;;;5028939;28;20471;-59
2023/01/24 02:23:56;;;;;;;15.57;10.13;;;8.40;59.30;;;;;;5029656;28;20535;-59
2023/01/24 02:26:25;;;;;;;16.10;9.87;;;8.40;59.20;;;;;;5031885;28;21148;-59
2023/01/24 02:29:06;;;;;;;13.13;10.30;;;8.40;59.20;;;;;;5030979;28;20487;-59
2023/01/24 02:31:53;;;;;;;12.30;10.57;;;8.30;59.30;;;;;;5022444;28;21965;-59
2023/01/24 02:34:19;;;;;;;14.57;10.13;;;8.40;59.50;;;;;;5020697;28;20486;-59
2023/01/24 02:36:45;;;;;;;13.07;9.30;;;8.50;59.80;;;;;;5033301;28;20912;-59
2023/01/24 02:39:17;;;;;;;12.00;9.10;;;8.50;59.10;;;;;;5024065;28;20235;-59
2023/01/24 02:41:50;;;;;;;12.10;10.23;;;8.50;59.20;;;;;;5027200;28;20440;-59
2023/01/24 02:44:25;;;;;;;11.97;9.73;;;8.50;59.10;;;;;;5032269;28;20438;-59
2023/01/24 02:46:51;;;;;;;13.40;9.73;;;8.60;58.80;;;;;;5028726;28;20809;-59
2023/01/24 02:49:16;;;;;;;13.47;9.93;;;8.60;58.60;;;;;;5022997;28;20440;-59
2023/01/24 02:54:26;;;;;;;11.77;9.30;;;8.60;59.10;;;;;;5024688;28;20263;-59
2023/01/24 02:59:35;;;;;;;13.10;10.50;;;8.90;58.70;;;;;;5025608;28;20224;-59
2023/01/24 03:02:01;;;;;;;13.77;9.53;;;8.90;58.20;;;;;;5026648;28;20448;-60
2023/01/24 03:04:27;;;;;;;14.50;10.47;;;9.00;57.90;;;;;;5031141;28;20197;-59
2023/01/24 03:06:52;;;;;;;12.53;9.13;;;9.10;57.70;;;;;;5027785;28;20201;-59
2023/01/24 03:09:18;;;;;;;12.70;9.97;;;9.20;57.60;;;;;;5028871;28;20240;-59
2023/01/24 03:11:48;;;;;;;12.37;9.40;;;9.20;57.50;;;;;;5026093;28;20549;-59
2023/01/24 03:36:19;;;;;;;14.70;10.80;;;9.00;57.90;;;;;;5025991;28;20443;-59
2023/01/24 03:41:30;;;;;;;14.03;9.73;;;8.80;58.40;;;;;;5028769;28;20497;-59
2023/01/24 03:43:55;;;;;;;11.60;8.97;;;8.70;58.30;;;;;;5029483;28;20447;-59
2023/01/24 03:46:21;;;;;;;15.03;10.40;;;8.80;58.30;;;;;;5024607;28;20193;-59
2023/01/24 03:48:46;;;;;;;15.17;9.73;;;8.90;58.10;;;;;;5026205;28;20201;-59
2023/01/24 03:53:56;;;;;;;14.87;11.00;;;8.90;58.20;;;;;;5028064;28;20680;-59
2023/01/24 03:56:22;;;;;;;17.80;11.00;;;8.80;58.10;;;;;;5026481;28;20468;-59
2023/01/24 03:58:47;;;;;;;13.07;9.33;;;8.70;58.40;;;;;;5030135;28;20559;-59
2023/01/24 04:01:13;;;;;;;12.00;9.70;;;8.80;58.30;;;;;;5027739;28;20644;-59
2023/01/24 04:03:39;;;;;;;15.40;10.20;;;8.90;58.10;;;;;;5023421;28;20198;-59
2023/01/24 04:06:05;;;;;;;14.23;10.77;;;8.80;58.20;;;;;;5023863;28;20201;-59
2023/01/24 04:08:31;;;;;;;14.97;11.87;;;8.60;58.50;;;;;;5025173;28;20269;-59
2023/01/24 04:10:56;;;;;;;13.17;10.47;;;8.60;58.70;;;;;;5020231;28;20838;-59
2023/01/24 04:13:22;;;;;;;15.00;10.30;;;8.70;58.70;;;;;;5027631;28;20276;-58
2023/01/24 04:15:48;;;;;;;13.90;10.53;;;8.70;58.50;;;;;;5030331;28;20920;-60
2023/01/24 04:18:13;;;;;;;14.73;11.07;;;8.80;58.30;;;;;;5024185;28;20196;-59
2023/01/24 04:20:39;;;;;;;14.63;10.80;;;8.90;58.40;;;;;;5028263;28;20197;-60
2023/01/24 04:23:06;;;;;;;18.03;10.33;;;8.90;58.20;;;;;;5028482;28;20337;-60
2023/01/24 04:25:33;;;;;;;14.63;10.40;;;8.90;58.20;;;;;;5029797;28;20553;-60
2023/01/24 04:27:59;;;;;;;11.83;10.27;;;8.90;58.10;;;;;;5029060;28;20439;-60
2023/01/24 04:30:25;;;;;;;13.37;10.57;;;9.00;58.10;;;;;;5030406;28;20946;-60
2023/01/24 04:32:51;;;;;;;16.07;10.83;;;9.10;58.00;;;;;;5020768;28;20696;-60
2023/01/24 04:35:19;;;;;;;13.37;10.37;;;9.10;57.90;;;;;;5018885;28;20530;-60
2023/01/24 04:37:44;;;;;;;13.20;9.90;;;9.10;57.70;;;;;;5027887;28;20539;-60
2023/01/24 04:40:11;;;;;;;15.70;10.40;;;9.00;57.80;;;;;;5026523;28;20535;-60
2023/01/24 04:42:39;;;;;;;13.20;10.27;;;9.00;57.70;;;;;;5029205;28;20186;-60
2023/01/24 04:45:05;;;;;;;16.40;10.77;;;9.10;57.80;;;;;;5030152;28;20858;-60
2023/01/24 04:47:31;;;;;;;13.97;11.83;;;9.00;57.70;;;;;;5028546;28;20543;-60
2023/01/24 04:49:57;;;;;;;15.93;11.67;;;9.00;57.70;;;;;;5027947;28;20527;-60
2023/01/24 04:52:22;;;;;;;12.50;10.23;;;8.90;58.00;;;;;;5027774;28;20228;-60
2023/01/24 04:54:48;;;;;;;14.43;10.50;;;8.70;58.20;;;;;;5016362;28;20230;-60
2023/01/24 04:57:13;;;;;;;15.13;10.77;;;8.80;58.50;;;;;;5025649;28;20196;-60
2023/01/24 04:59:39;;;;;;;16.13;11.77;;;8.80;58.30;;;;;;5029843;28;20228;-60
2023/01/24 05:02:09;;;;;;;16.30;12.10;;;8.90;58.20;;;;;;5020471;28;20190;-62
2023/01/24 05:04:35;;;;;;;14.87;11.80;;;9.00;58.10;;;;;;5022460;28;20455;-58
2023/01/24 05:07:01;;;;;;;15.73;11.20;;;9.00;58.00;;;;;;5022170;28;20440;-59
2023/01/24 05:09:26;;;;;;;15.77;11.47;;;8.90;57.90;;;;;;5026467;28;20560;-59
2023/01/24 05:11:52;;;;;;;14.40;10.30;;;8.60;58.60;;;;;;5029954;28;20510;-58
2023/01/24 05:14:21;;;;;;;15.33;11.53;;;8.60;58.80;;;;;;5019175;28;20696;-59
2023/01/24 05:16:46;;;;;;;14.23;12.23;;;8.80;58.60;;;;;;5029578;28;20190;-58
2023/01/24 05:19:12;;;;;;;19.93;11.90;;;8.80;58.50;;;;;;5030537;28;20961;-59
2023/01/24 05:21:37;;;;;;;16.60;10.77;;;8.60;58.60;;;;;;5030732;28;20201;-59
2023/01/24 05:24:03;;;;;;;19.60;12.20;;;8.50;59.00;;;;;;5027820;28;20221;-58
2023/01/24 05:26:29;;;;;;;17.07;12.90;;;8.50;59.20;;;;;;5022535;28;20190;-59
2023/01/24 05:28:54;;;;;;;17.00;12.03;;;8.60;59.10;;;;;;5030131;28;20204;-60
2023/01/24 05:31:21;;;;;;;16.77;11.00;;;8.50;59.20;;;;;;5029977;28;20229;-60
2023/01/24 05:33:47;;;;;;;15.40;10.90;;;8.40;59.30;;;;;;5030151;28;20225;-59
2023/01/24 05:36:23;;;;;;;16.10;11.30;;;8.40;59.40;;;;;;5027616;28;20435;-60
2023/01/24 05:38:49;;;;;;;16.07;11.80;;;8.40;59.40;;;;;;5028630;28;20962;-60
2023/01/24 05:41:17;;;;;;;16.30;12.10;;;8.40;59.40;;;;;;5021716;28;20433;-59
2023/01/24 05:43:44;;;;;;;14.50;10.70;;;8.30;59.50;;;;;;5028236;28;20443;-60
2023/01/24 05:46:12;;;;;;;17.37;11.20;;;8.40;59.80;;;;;;5032090;28;20427;-60
2023/01/24 05:48:38;;;;;;;14.67;11.57;;;8.30;59.70;;;;;;5033785;28;20860;-60
2023/01/24 05:51:07;;;;;;;15.10;11.03;;;8.20;60.00;;;;;;5032902;28;20547;-60
2023/01/24 05:53:35;;;;;;;16.10;11.37;;;8.10;60.40;;;;;;5033055;28;20228;-60
2023/01/24 05:56:04;;;;;;;15.47;11.43;;;8.10;60.80;;;;;;5032992;28;20446;-60
2023/01/24 05:58:33;;;;;;;14.90;10.60;;;8.10;60.50;;;;;;5034039;28;20470;-60
2023/01/24 06:00:59;;;;;;;17.50;10.77;;;8.20;60.80;;;;;;5033326;28;20534;-60
2023/01/24 06:03:25;;;;;;;19.17;11.77;;;8.30;60.10;;;;;;5032420;28;20986;-60
2023/01/24 06:05:53;;;;;;;19.63;11.87;;;8.40;59.90;;;;;;5033585;28;20217;-60
2023/01/24 06:08:20;;;;;;;16.53;11.90;;;8.40;59.90;;;;;;5024840;28;20188;-59
2023/01/24 06:10:46;;;;;;;14.83;11.40;;;8.50;59.60;;;;;;5026988;28;20475;-59
2023/01/24 06:13:13;;;;;;;15.40;11.43;;;8.40;59.40;;;;;;5024435;28;22412;-59
2023/01/24 06:15:39;;;;;;;16.30;11.23;;;8.60;60.20;;;;;;5030092;28;20562;-60
2023/01/24 06:18:05;;;;;;;13.97;10.03;;;8.80;59.70;;;;;;5025628;28;20447;-60
2023/01/24 06:20:32;;;;;;;16.17;11.60;;;8.80;59.90;;;;;;5027623;28;21028;-60
2023/01/24 06:23:06;;;;;;;15.13;10.53;;;8.80;59.70;;;;;;5029778;28;20538;-59
2023/01/24 06:25:32;;;;;;;12.77;10.27;;;9.10;59.90;;;;;;5030143;28;20509;-59
2023/01/24 06:27:58;;;;;;;16.93;11.00;;;9.10;58.90;;;;;;5029111;28;20443;-60
2023/01/24 06:30:24;;;;;;;16.10;10.53;;;9.30;58.40;;;;;;5021433;28;20449;-60
2023/01/24 06:33:19;;;;;;;16.10;11.33;;;9.40;58.30;;;;;;5030470;28;20476;-59
2023/01/24 06:36:14;;;;;;;13.70;10.10;;;9.20;58.00;;;;;;5032384;28;20447;-59
2023/01/24 06:38:40;;;;;;;14.30;10.30;;;9.30;57.90;;;;;;5045123;28;20451;-60
2023/01/24 06:41:15;;;;;;;12.70;10.60;;;9.40;57.50;;;;;;5033609;28;20935;-60
2023/01/24 06:43:41;;;;;;;15.07;10.43;;;9.60;58.10;;;;;;5032827;28;20196;-59
2023/01/24 06:46:08;;;;;;;16.90;10.53;;;9.80;58.20;;;;;;5025895;28;20447;-59
2023/01/24 06:48:34;;;;;;;15.93;10.50;;;10.00;57.20;;;;;;5032852;28;20439;-60
2023/01/24 06:51:00;;;;;;;15.67;11.33;;;10.20;56.60;;;;;;5031410;28;20440;-59
2023/01/24 06:53:26;;;;;;;16.03;10.87;;;10.20;55.70;;;;;;5032189;28;20276;-60
2023/01/24 06:55:51;;;;;;;15.33;10.70;;;10.30;55.70;;;;;;5028498;28;20539;-59
2023/01/24 06:58:17;;;;;;;15.00;10.13;;;10.40;55.70;;;;;;5032545;28;20204;-60
2023/01/24 07:00:42;;;;;;;17.77;12.00;;;10.50;55.20;;;;;;5030558;28;20260;-59
2023/01/24 07:03:08;;;;;;;18.07;10.90;;;10.50;54.60;;;;;;5031861;28;20209;-59
2023/01/24 07:05:35;;;;;;;17.20;12.00;;;10.40;54.30;;;;;;5029931;28;20220;-59
2023/01/24 07:08:01;;;;;;;12.87;9.87;;;10.30;54.30;;;;;;5027215;28;20248;-59
2023/01/24 07:10:28;;;;;;;15.53;11.23;;;10.10;54.20;;;;;;5031818;28;20455;-59
2023/01/24 07:12:54;;;;;;;13.23;9.83;;;10.00;54.40;;;;;;5031798;28;20475;-59
2023/01/24 07:15:20;;;;;;;19.83;12.00;;;9.90;55.50;;;;;;5025860;28;21013;-59
2023/01/24 07:17:45;;;;;;;13.70;9.97;;;9.80;55.90;;;;;;5028714;28;20448;-59
2023/01/24 07:20:12;;;;;;;12.93;10.17;;;9.60;56.20;;;;;;5029905;28;20194;-59
2023/01/24 07:22:38;;;;;;;16.20;10.77;;;9.60;56.40;;;;;;5032016;28;20200;-60
2023/01/24 07:25:15;;;;;;;14.00;9.83;;;9.60;56.40;;;;;;5031089;28;20452;-59
2023/01/24 07:27:42;;;;;;;13.90;10.40;;;9.60;56.40;;;;;;5030129;28;20462;-59
2023/01/24 07:30:09;;;;;;;14.20;10.50;;;9.50;56.50;;;;;;5031274;28;20448;-59
2023/01/24 07:32:35;;;;;;;13.23;9.37;;;9.40;56.60;;;;;;5029640;28;20478;-59
2023/01/24 07:35:00;;;;;;;14.50;10.07;;;9.30;56.70;;;;;;5031340;28;20491;-60
2023/01/24 07:37:26;;;;;;;13.40;10.20;;;9.40;56.80;;;;;;5030533;28;20563;-59
2023/01/24 07:39:51;;;;;;;14.10;9.63;;;9.30;56.90;;;;;;5031755;28;20683;-59
2023/01/24 07:42:17;;;;;;;12.60;9.03;;;9.30;56.90;;;;;;5031478;28;20209;-59
2023/01/24 07:44:42;;;;;;;13.30;9.50;;;9.20;57.20;;;;;;5032290;28;20204;-60
2023/01/24 07:47:08;;;;;;;13.20;9.80;;;9.30;57.40;;;;;;5029698;28;20193;-59
2023/01/24 07:49:33;;;;;;;12.70;10.23;;;9.30;57.30;;;;;;5031174;28;20698;-59
2023/01/24 07:51:59;;;;;;;13.93;10.27;;;9.10;57.20;;;;;;5030568;28;20974;-59
2023/01/24 07:54:24;;;;;;;14.93;10.07;;;9.20;57.20;;;;;;5029236;28;20235;-59
2023/01/24 07:56:51;;;;;;;14.07;10.20;;;9.30;57.10;;;;;;5031930;28;20671;-60
2023/01/24 07:59:16;;;;;;;15.80;10.80;;;9.30;57.00;;;;;;5029201;28;20204;-59
2023/01/24 08:01:42;;;;;;;16.33;10.97;;;9.40;57.10;;;;;;5031983;28;20444;-59
2023/01/24 08:04:08;;;;;;;12.77;9.07;;;9.40;57.00;;;;;;5031238;28;20189;-59
2023/01/24 08:06:34;;;;;;;14.63;10.07;;;9.40;57.10;;;;;;5031614;28;20546;-59
2023/01/24 08:08:59;;;;;;;18.40;12.10;;;9.40;57.20;;;;;;5031376;28;20425;-59
2023/01/24 08:11:25;;;;;;;16.00;10.23;;;9.40;57.10;;;;;;5036520;28;20339;-59
2023/01/24 08:13:50;;;;;;;15.50;12.17;;;9.50;57.10;;;;;;5025452;28;20221;-59
2023/01/24 08:16:16;;;;;;;14.50;10.07;;;9.60;57.30;;;;;;5031040;28;20568;-59
2023/01/24 08:18:44;;;;;;;15.90;9.97;;;9.60;57.20;;;;;;5029368;28;20247;-59
2023/01/24 08:21:09;;;;;;;13.70;10.63;;;9.60;57.00;;;;;;5041230;28;20451;-59
2023/01/24 08:23:35;;;;;;;14.70;11.43;;;9.60;57.00;;;;;;5031525;28;20805;-59
2023/01/24 08:26:02;;;;;;;13.73;10.90;;;9.70;56.90;;;;;;5026564;28;20185;-59
2023/01/24 08:28:29;;;;;;;15.50;12.00;;;9.70;56.90;;;;;;5031547;28;21077;-59
2023/01/24 08:30:57;;;;;;;18.53;14.87;;;9.80;56.80;;;;;;5031321;28;20957;-59
2023/01/24 08:33:23;;;;;;;16.47;12.90;;;9.80;56.50;;;;;;5031317;28;20428;-59
2023/01/24 08:35:49;;;;;;;15.10;10.73;;;9.70;56.60;;;;;;5029813;28;20465;-59
2023/01/24 08:38:16;;;;;;;16.67;11.03;;;9.80;56.70;;;;;;5041308;28;20465;-60
2023/01/24 08:40:42;;;;;;;14.90;10.93;;;9.80;56.70;;;;;;5031494;28;20633;-59
2023/01/24 08:43:08;;;;;;;13.13;10.20;;;9.90;56.80;;;;;;5031349;28;20527;-59
2023/01/24 08:45:34;;;;;;;16.33;10.77;;;9.90;56.50;;;;;;5031583;28;20503;-59
2023/01/24 08:48:00;;;;;;;14.70;9.50;;;9.90;56.50;;;;;;5030300;28;20193;-59
2023/01/24 08:50:26;;;;;;;12.83;10.27;;;9.90;56.40;;;;;;5031289;28;20478;-59
2023/01/24 08:52:56;;;;;;;12.87;9.60;;;9.80;56.40;;;;;;5029565;28;20919;-59
2023/01/24 08:55:22;;;;;;;10.60;9.00;;;9.60;56.50;;;;;;5031196;28;20221;-59
2023/01/24 08:57:47;;;;;;;14.80;9.93;;;9.60;56.60;;;;;;5030281;28;20486;-59
2023/01/24 09:00:13;;;;;;;12.47;9.10;;;9.60;56.60;;;;;;5030998;28;20907;-59
2023/01/24 09:02:39;;;;;;;12.77;9.00;;;9.50;56.70;;;;;;5030955;28;20650;-59
2023/01/24 09:05:06;;;;;;;15.00;10.00;;;9.50;56.70;;;;;;5031147;28;20465;-59
2023/01/24 09:07:34;;;;;;;15.90;11.80;;;9.60;56.60;;;;;;5024752;28;20672;-59
2023/01/24 09:09:59;;;;;;;13.93;9.23;;;9.70;56.60;;;;;;5035813;28;20436;-59
2023/01/24 09:12:25;;;;;;;11.87;9.43;;;9.60;56.60;;;;;;5034734;28;20436;-59
2023/01/24 09:14:50;;;;;;;12.67;8.77;;;9.40;56.80;;;;;;5030629;28;20221;-59
2023/01/24 09:17:16;;;;;;;14.77;10.00;;;9.40;57.00;;;;;;5030885;28;20623;-59
2023/01/24 09:19:41;;;;;;;14.20;9.43;;;9.50;57.10;;;;;;5033140;28;20587;-60
2023/01/24 09:22:07;;;;;;;14.43;10.53;;;9.60;57.00;;;;;;5033870;28;20189;-60
2023/01/24 09:24:33;;;;;;;14.40;9.97;;;9.70;56.90;;;;;;5034108;28;20272;-59
2023/01/24 09:26:58;;;;;;;11.80;8.63;;;9.50;56.80;;;;;;5026897;28;20201;-60
2023/01/24 09:29:24;;;;;;;12.53;9.00;;;9.60;57.00;;;;;;5026033;28;20189;-59
2023/01/24 09:31:49;;;;;;;11.10;8.90;;;9.60;56.90;;;;;;5027460;28;20297;-59
2023/01/24 09:34:15;;;;;;;10.70;8.70;;;9.50;56.90;;;;;;5029022;28;20680;-59
2023/01/24 09:36:40;;;;;;;12.20;8.93;;;9.40;57.10;;;;;;5023730;28;20201;-59
2023/01/24 09:39:06;;;;;;;12.03;9.13;;;9.40;57.10;;;;;;5029940;28;20262;-59
2023/01/24 09:41:59;;;;;;;14.87;10.10;;;9.50;57.10;;;;;;5023695;28;20200;-59
2023/01/24 09:44:58;;;;;;;12.53;9.60;;;9.40;57.20;;;;;;5026510;28;20235;-60
2023/01/24 09:47:28;;;;;;;12.60;9.40;;;9.40;57.30;;;;;;5017596;28;20874;-60
2023/01/24 09:50:01;;;;;;;13.73;9.63;;;9.30;57.40;;;;;;5031248;28;20442;-60
2023/01/24 09:52:40;;;;;;;11.67;8.70;;;9.40;57.20;;;;;;5031271;28;20459;-60
2023/01/24 09:55:23;;;;;;;11.20;8.80;;;9.40;57.50;;;;;;5022672;28;20483;-60
2023/01/24 09:58:01;;;;;;;11.90;8.43;;;9.60;57.40;;;;;;5031376;28;20942;-60
2023/01/24 10:00:30;;;;;;;11.20;8.17;;;9.60;57.10;;;;;;5037735;28;20958;-60
2023/01/24 10:02:58;;;;;;;11.93;8.93;;;9.50;57.00;;;;;;5030679;28;20578;-60
2023/01/24 10:05:32;;;;;;;10.00;8.33;;;9.60;57.30;;;;;;5038749;28;20439;-60
2023/01/24 10:08:12;;;;;;;9.83;7.97;;;9.60;57.30;;;;;;5034058;28;20412;-60
2023/01/24 10:10:47;;;;;;;10.13;7.57;;;9.50;57.10;;;;;;5031560;28;20446;-60
2023/01/24 10:13:53;;;;;;;12.07;8.60;;;9.60;57.00;;;;;;5031261;28;20457;-60
2023/01/24 10:16:21;;;;;;;10.53;8.33;;;9.70;56.80;;;;;;5029715;28;20475;-60
2023/01/24 10:19:06;;;;;;;10.33;7.77;;;9.70;56.80;;;;;;5031972;28;20951;-60
2023/01/24 10:21:59;;;;;;;10.33;8.17;;;9.80;56.80;;;;;;5026012;28;20445;-60
2023/01/24 10:24:30;;;;;;;11.93;8.13;;;9.90;56.60;;;;;;5018448;28;20461;-60
2023/01/24 10:26:56;;;;;;;9.43;8.10;;;9.90;56.40;;;;;;5032748;28;20841;-60
2023/01/24 10:29:29;;;;;;;10.80;8.20;;;10.00;55.40;;;;;;5027098;28;20498;-60
2023/01/24 10:32:10;;;;;;;14.43;8.20;;;9.90;56.40;;;;;;5030531;28;20763;-60
2023/01/24 10:34:48;;;;;;;9.50;7.17;;;9.90;56.20;;;;;;5032854;28;20570;-60
2023/01/24 10:37:23;;;;;;;12.27;8.43;;;10.00;55.30;;;;;;5027360;28;20562;-60
2023/01/24 10:39:49;;;;;;;10.20;7.90;;;10.00;55.00;;;;;;5025513;28;20450;-60
2023/01/24 10:42:30;;;;;;;11.13;7.87;;;10.10;55.30;;;;;;5028351;28;20507;-60
2023/01/24 10:45:00;;;;;;;14.97;11.37;;;10.20;54.90;;;;;;5030294;28;20197;-60
2023/01/24 10:47:37;;;;;;;9.53;7.93;;;10.30;54.70;;;;;;5032687;28;20432;-60
2023/01/24 10:50:10;;;;;;;9.60;7.90;;;10.30;54.60;;;;;;5033469;28;20481;-60
2023/01/24 10:52:35;;;;;;;14.70;8.40;;;10.30;54.60;;;;;;5030961;28;20432;-60
2023/01/24 10:55:04;;;;;;;10.20;7.60;;;10.30;54.50;;;;;;5019072;28;20943;-60
2023/01/24 10:57:36;;;;;;;9.70;7.40;;;10.30;54.70;;;;;;5028185;28;20193;-60
2023/01/24 11:00:14;;;;;;;8.67;6.93;;;10.30;54.50;;;;;;5021016;28;20534;-60
2023/01/24 11:02:39;;;;;;;12.27;7.67;;;10.40;54.50;;;;;;5024762;28;20591;-60
2023/01/24 11:05:06;;;;;;;8.83;7.70;;;10.50;54.30;;;;;;5025174;28;20469;-60
2023/01/24 11:07:40;;;;;;;8.80;7.07;;;10.60;54.20;;;;;;5026859;28;20201;-60
2023/01/24 11:10:26;;;;;;;10.07;7.33;;;10.60;54.00;;;;;;5034938;28;20479;-60
2023/01/24 11:12:56;;;;;;;9.73;6.97;;;10.30;54.50;;;;;;5031202;28;20810;-60
2023/01/24 11:15:28;;;;;;;10.77;8.00;;;10.40;54.60;;;;;;5029103;28;20494;-60
2023/01/24 11:18:06;;;;;;;9.00;7.03;;;10.30;55.00;;;;;;5027489;28;20455;-60
2023/01/24 11:20:35;;;;;;;11.13;8.07;;;10.40;54.80;;;;;;5029022;28;20443;-60
2023/01/24 11:23:17;;;;;;;9.23;7.17;;;10.30;54.90;;;;;;5029654;28;20452;-60
2023/01/24 11:25:57;;;;;;;10.43;7.53;;;10.10;55.30;;;;;;5028534;28;20443;-60
2023/01/24 11:28:34;;;;;;;9.10;7.40;;;10.20;55.60;;;;;;5031228;28;20452;-60
2023/01/24 11:31:07;;;;;;;9.27;6.80;;;10.20;55.60;;;;;;5030259;28;20494;-61
2023/01/24 11:33:47;;;;;;;10.40;7.67;;;10.40;55.40;;;;;;5029677;28;20475;-61
2023/01/24 11:36:38;;;;;;;11.23;7.57;;;10.50;55.20;;;;;;5026697;28;20506;-61
2023/01/24 11:39:29;;;;;;;9.60;7.87;;;10.60;54.90;;;;;;5016119;28;20487;-60
2023/01/24 11:42:09;;;;;;;9.60;8.47;;;10.70;54.60;;;;;;5022282;28;20440;-60
2023/01/24 11:44:54;;;;;;;9.27;7.17;;;10.70;54.30;;;;;;5022317;28;20471;-61
2023/01/24 11:47:24;;;;;;;7.20;5.80;;;10.60;54.30;;;;;;5012929;28;20527;-61
2023/01/24 11:50:08;;;;;;;21.53;12.00;;;10.70;54.50;;;;;;5028748;28;20543;-61
2023/01/24 11:53:10;;;;;;;9.03;6.87;;;10.70;54.10;;;;;;5029434;28;20441;-61
2023/01/24 11:55:57;;;;;;;9.00;7.13;;;10.80;53.80;;;;;;5027177;28;20487;-61
2023/01/24 11:58:54;;;;;;;11.23;6.40;;;10.90;54.10;;;;;;5021796;28;20878;-61
2023/01/24 12:01:31;;;;;;;9.67;7.43;;;10.80;54.20;;;;;;5029041;28;20467;-61
2023/01/24 12:04:15;;;;;;;9.13;6.87;;;10.70;54.10;;;;;;5027895;28;20471;-61
2023/01/24 12:06:49;;;;;;;10.33;8.97;;;10.90;54.10;;;;;;5026832;28;20534;-61
2023/01/24 12:09:22;;;;;;;7.83;7.03;;;10.90;54.10;;;;;;5030497;28;21061;-61
2023/01/24 12:11:55;;;;;;;10.00;7.77;;;10.90;54.20;;;;;;5027253;28;20444;-61
2023/01/24 12:14:27;;;;;;;8.80;6.83;;;10.90;54.20;;;;;;5024669;28;20488;-61
2023/01/24 12:17:10;;;;;;;10.17;7.17;;;10.90;54.00;;;;;;5030838;28;20935;-61
2023/01/24 12:19:48;;;;;;;10.00;8.50;;;10.80;53.80;;;;;;5026261;28;20436;-61
2023/01/24 12:22:20;;;;;;;16.50;9.03;;;10.80;54.40;;;;;;5030705;28;20812;-61
2023/01/24 12:24:53;;;;;;;8.73;7.80;;;10.80;54.90;;;;;;5029876;28;20463;-61
2023/01/24 12:27:24;;;;;;;10.60;9.20;;;10.70;54.50;;;;;;5026637;28;20448;-62
2023/01/24 12:30:05;;;;;;;16.30;12.90;;;10.60;54.50;;;;;;5030940;28;20442;-62
2023/01/24 12:32:56;;;;;;;12.73;9.87;;;10.70;54.90;;;;;;5030179;28;20491;-61
2023/01/24 12:35:33;;;;;;;12.17;10.00;;;10.70;54.90;;;;;;5028707;28;21020;-61
2023/01/24 12:38:23;;;;;;;10.90;8.83;;;10.80;54.90;;;;;;5029330;28;20493;-61
2023/01/24 12:41:05;;;;;;;10.33;7.83;;;10.70;54.70;;;;;;5030099;28;20467;-61
2023/01/24 12:43:58;;;;;;;10.90;7.80;;;10.40;54.90;;;;;;5029069;28;20452;-61
2023/01/24 12:46:48;;;;;;;8.77;7.60;;;10.40;55.40;;;;;;5023180;28;20440;-62
2023/01/24 12:49:29;;;;;;;11.83;8.97;;;10.50;55.10;;;;;;5026859;28;20456;-61
2023/01/24 12:52:17;;;;;;;10.67;8.30;;;10.60;55.20;;;;;;5027483;28;20472;-61
2023/01/24 12:55:03;;;;;;;12.87;9.77;;;10.80;55.00;;;;;;5030383;28;20483;-61
2023/01/24 12:57:38;;;;;;;13.30;10.07;;;10.60;54.60;;;;;;5027018;28;20458;-62
2023/01/24 13:00:18;;;;;;;10.00;8.53;;;10.60;55.00;;;;;;5026797;28;20460;-61
2023/01/24 13:03:05;;;;;;;13.87;10.13;;;10.50;54.90;;;;;;5039083;28;20435;-61
2023/01/24 13:05:41;;;;;;;11.03;9.70;;;10.60;55.20;;;;;;5021737;28;20440;-62
2023/01/24 13:08:06;;;;;;;17.00;12.30;;;10.50;55.00;;;;;;5023390;28;20975;-61
2023/01/24 13:11:09;;;;;;;12.37;7.93;;;10.20;55.30;;;;;;5029647;28;20519;-61
2023/01/24 13:14:05;;;;;;;11.73;9.23;;;10.20;55.50;;;;;;5024720;28;20205;-61
2023/01/24 13:17:02;;;;;;;8.53;7.33;;;10.20;55.60;;;;;;5028163;28;20495;-60
2023/01/24 13:19:36;;;;;;;10.57;7.00;;;10.40;55.40;;;;;;5029970;28;20439;-61
2023/01/24 13:22:11;;;;;;;12.37;9.40;;;10.30;55.20;;;;;;5028500;28;20893;-61
2023/01/24 13:25:03;;;;;;;13.13;10.20;;;10.30;55.30;;;;;;5026456;28;20817;-61
2023/01/24 13:27:36;;;;;;;13.27;9.67;;;10.40;55.40;;;;;;5022946;28;20444;-61
2023/01/24 13:30:17;;;;;;;14.40;11.00;;;10.30;55.60;;;;;;5027760;28;20864;-61
2023/01/24 13:32:43;;;;;;;11.73;9.77;;;10.30;55.60;;;;;;5027681;28;20478;-61